sensor_id;sensor_type;location;lat;lon;timestamp;pressure;altitude;pressure_sealevel;temperature;humidity
66887;BME280;67239;51.680;5.976;2023-04-29T00:01:24;101281.75;;;9.65;100.00
66887;BME280;67239;51.680;5.976;2023-04-29T00:03:52;101274.81;;;9.61;100.00
66887;BME280;67239;51.680;5.976;2023-04-29T00:06:19;101281.84;;;9.60;100.00
66887;BME280;67239;51.680;5.976;2023-04-29T00:08:47;101280.97;;;9.60;100.00
66887;BME280;67239;51.680;5.976;2023-04-29T00:11:14;101284.56;;;9.56;100.00
66887;BME280;67239;51.680;5.976;2023-04-29T00:13:41;101285.47;;;9.53;100.00
66887;BME280;67239;51.680;5.976;2023-04-29T00:16:08;101291.63;;;9.54;100.00
66887;BME280;67239;51.680;5.976;2023-04-29T00:18:36;101288.94;;;9.55;100.00
66887;BME280;67239;51.680;5.976;2023-04-29T00:21:04;101288.91;;;9.57;100.00
66887;BME280;67239;51.680;5.976;2023-04-29T00:23:34;101296.81;;;9.57;100.00
66887;BME280;67239;51.680;5.976;2023-04-29T00:26:01;101306.44;;;9.58;100.00
66887;BME280;67239;51.680;5.976;2023-04-29T00:28:29;101294.16;;;9.58;100.00
66887;BME280;67239;51.680;5.976;2023-04-29T00:30:56;101304.66;;;9.60;99.83
66887;BME280;67239;51.680;5.976;2023-04-29T00:33:23;101306.44;;;9.59;99.71
66887;BME280;67239;51.680;5.976;2023-04-29T00:35:50;101304.66;;;9.60;99.48
66887;BME280;67239;51.680;5.976;2023-04-29T00:38:17;101306.44;;;9.58;99.51
66887;BME280;67239;51.680;5.976;2023-04-29T00:40:45;101315.31;;;9.54;99.21
66887;BME280;67239;51.680;5.976;2023-04-29T00:43:12;101307.50;;;9.49;99.65
66887;BME280;67239;51.680;5.976;2023-04-29T00:45:39;101316.25;;;9.50;100.00
66887;BME280;67239;51.680;5.976;2023-04-29T00:48:06;101311.00;;;9.50;100.00
66887;BME280;67239;51.680;5.976;2023-04-29T00:50:34;101318.91;;;9.48;100.00
66887;BME280;67239;51.680;5.976;2023-04-29T00:53:02;101321.56;;;9.46;100.00
66887;BME280;67239;51.680;5.976;2023-04-29T00:55:32;101311.03;;;9.46;100.00
66887;BME280;67239;51.680;5.976;2023-04-29T00:57:59;101319.81;;;9.47;100.00
66887;BME280;67239;51.680;5.976;2023-04-29T01:00:29;101326.00;;;9.44;99.86
66887;BME280;67239;51.680;5.976;2023-04-29T01:02:57;101333.91;;;9.43;99.44
66887;BME280;67239;51.680;5.976;2023-04-29T01:05:25;101333.09;;;9.41;99.85
66887;BME280;67239;51.680;5.976;2023-04-29T01:08:20;101331.34;;;9.40;99.88
66887;BME280;67239;51.680;5.976;2023-04-29T01:11:11;101327.84;;;9.41;99.83
66887;BME280;67239;51.680;5.976;2023-04-29T01:13:49;101333.94;;;9.41;99.63
66887;BME280;67239;51.680;5.976;2023-04-29T01:16:24;101338.28;;;9.44;99.36
66887;BME280;67239;51.680;5.976;2023-04-29T01:19:07;101344.47;;;9.41;98.60
66887;BME280;67239;51.680;5.976;2023-04-29T01:22:04;101350.72;;;9.36;98.97
66887;BME280;67239;51.680;5.976;2023-04-29T01:24:32;101345.50;;;9.32;99.54
66887;BME280;67239;51.680;5.976;2023-04-29T01:27:07;101347.31;;;9.30;99.69
66887;BME280;67239;51.680;5.976;2023-04-29T01:29:50;101341.19;;;9.28;99.86
66887;BME280;67239;51.680;5.976;2023-04-29T01:32:37;101349.09;;;9.28;100.00
66887;BME280;67239;51.680;5.976;2023-04-29T01:38:33;101359.69;;;9.24;100.00
66887;BME280;67239;51.680;5.976;2023-04-29T01:41:22;101365.00;;;9.21;100.00
66887;BME280;67239;51.680;5.976;2023-04-29T01:44:15;101367.69;;;9.16;100.00
66887;BME280;67239;51.680;5.976;2023-04-29T01:46:49;101366.88;;;9.12;100.00
66887;BME280;67239;51.680;5.976;2023-04-29T01:49:28;101364.28;;;9.09;100.00
66887;BME280;67239;51.680;5.976;2023-04-29T01:51:58;101370.50;;;9.05;100.00
66887;BME280;67239;51.680;5.976;2023-04-29T01:54:25;101372.28;;;9.03;100.00
66887;BME280;67239;51.680;5.976;2023-04-29T01:56:54;101370.50;;;9.04;100.00
66887;BME280;67239;51.680;5.976;2023-04-29T01:59:47;101367.91;;;9.02;100.00
66887;BME280;67239;51.680;5.976;2023-04-29T02:02:37;101369.69;;;9.00;100.00
66887;BME280;67239;51.680;5.976;2023-04-29T02:05:15;101364.47;;;8.98;100.00
66887;BME280;67239;51.680;5.976;2023-04-29T02:07:49;101371.47;;;8.98;100.00
66887;BME280;67239;51.680;5.976;2023-04-29T02:10:17;101378.50;;;8.97;100.00
66887;BME280;67239;51.680;5.976;2023-04-29T02:12:49;101375.00;;;8.98;100.00
66887;BME280;67239;51.680;5.976;2023-04-29T02:15:18;101382.03;;;8.96;100.00
66887;BME280;67239;51.680;5.976;2023-04-29T02:17:46;101383.78;;;8.97;100.00
66887;BME280;67239;51.680;5.976;2023-04-29T02:20:13;101379.44;;;8.95;100.00
66887;BME280;67239;51.680;5.976;2023-04-29T02:22:40;101376.81;;;8.93;100.00
66887;BME280;67239;51.680;5.976;2023-04-29T02:25:07;101383.84;;;8.93;100.00
66887;BME280;67239;51.680;5.976;2023-04-29T02:27:35;101381.16;;;8.94;100.00
66887;BME280;67239;51.680;5.976;2023-04-29T02:30:04;101389.91;;;8.96;100.00
66887;BME280;67239;51.680;5.976;2023-04-29T02:32:32;101394.28;;;8.97;100.00
66887;BME280;67239;51.680;5.976;2023-04-29T02:34:59;101393.41;;;8.97;100.00
66887;BME280;67239;51.680;5.976;2023-04-29T02:37:27;101403.03;;;8.98;100.00
66887;BME280;67239;51.680;5.976;2023-04-29T02:39:54;101398.66;;;8.98;100.00
66887;BME280;67239;51.680;5.976;2023-04-29T02:42:21;101403.00;;;9.01;100.00
66887;BME280;67239;51.680;5.976;2023-04-29T02:44:49;101405.59;;;9.02;100.00
66887;BME280;67239;51.680;5.976;2023-04-29T02:47:16;101416.97;;;9.05;100.00
66887;BME280;67239;51.680;5.976;2023-04-29T02:49:43;101416.97;;;9.05;100.00
66887;BME280;67239;51.680;5.976;2023-04-29T02:52:11;101409.97;;;9.04;100.00
66887;BME280;67239;51.680;5.976;2023-04-29T02:54:38;101418.75;;;9.04;100.00
66887;BME280;67239;51.680;5.976;2023-04-29T02:57:05;101422.25;;;9.03;100.00
66887;BME280;67239;51.680;5.976;2023-04-29T02:59:33;101415.22;;;9.05;100.00
66887;BME280;67239;51.680;5.976;2023-04-29T03:02:01;101422.19;;;9.06;100.00
66887;BME280;67239;51.680;5.976;2023-04-29T03:04:28;101422.25;;;9.03;100.00
66887;BME280;67239;51.680;5.976;2023-04-29T03:06:56;101424.81;;;9.06;100.00
66887;BME280;67239;51.680;5.976;2023-04-29T03:09:25;101426.56;;;9.07;100.00
66887;BME280;67239;51.680;5.976;2023-04-29T03:11:53;101431.81;;;9.09;100.00
66887;BME280;67239;51.680;5.976;2023-04-29T03:14:20;101430.06;;;9.08;100.00
66887;BME280;67239;51.680;5.976;2023-04-29T03:16:48;101437.09;;;9.09;100.00
66887;BME280;67239;51.680;5.976;2023-04-29T03:19:16;101443.16;;;9.11;100.00
66887;BME280;67239;51.680;5.976;2023-04-29T03:21:43;101435.28;;;9.11;100.00
66887;BME280;67239;51.680;5.976;2023-04-29T03:24:12;101443.19;;;9.09;100.00
66887;BME280;67239;51.680;5.976;2023-04-29T03:26:39;101444.13;;;9.07;100.00
66887;BME280;67239;51.680;5.976;2023-04-29T03:29:08;101441.53;;;9.05;100.00
66887;BME280;67239;51.680;5.976;2023-04-29T03:31:35;101445.03;;;9.04;100.00
66887;BME280;67239;51.680;5.976;2023-04-29T03:34:03;101439.78;;;9.02;100.00
66887;BME280;67239;51.680;5.976;2023-04-29T03:36:33;101445.03;;;9.04;100.00
66887;BME280;67239;51.680;5.976;2023-04-29T03:39:04;101446.78;;;9.04;100.00
66887;BME280;67239;51.680;5.976;2023-04-29T03:41:31;101449.41;;;9.04;100.00
66887;BME280;67239;51.680;5.976;2023-04-29T03:43:58;101444.19;;;9.02;100.00
66887;BME280;67239;51.680;5.976;2023-04-29T03:46:28;101444.19;;;9.02;100.00
66887;BME280;67239;51.680;5.976;2023-04-29T03:48:55;101456.41;;;9.05;100.00
66887;BME280;67239;51.680;5.976;2023-04-29T03:51:24;101457.28;;;9.07;100.00
66887;BME280;67239;51.680;5.976;2023-04-29T03:53:57;101456.38;;;9.08;100.00
66887;BME280;67239;51.680;5.976;2023-04-29T03:56:25;101459.88;;;9.08;100.00
66887;BME280;67239;51.680;5.976;2023-04-29T03:58:52;101461.59;;;9.09;100.00
66887;BME280;67239;51.680;5.976;2023-04-29T04:01:22;101465.97;;;9.10;100.00
66887;BME280;67239;51.680;5.976;2023-04-29T04:03:50;101467.75;;;9.08;100.00
66887;BME280;67239;51.680;5.976;2023-04-29T04:06:18;101473.03;;;9.08;100.00
66887;BME280;67239;51.680;5.976;2023-04-29T04:08:46;101474.75;;;9.09;100.00
66887;BME280;67239;51.680;5.976;2023-04-29T04:11:17;101480.91;;;9.10;100.00
66887;BME280;67239;51.680;5.976;2023-04-29T04:13:48;101473.91;;;9.09;100.00
66887;BME280;67239;51.680;5.976;2023-04-29T04:16:18;101478.28;;;9.10;100.00
66887;BME280;67239;51.680;5.976;2023-04-29T04:18:45;101478.28;;;9.10;100.00
66887;BME280;67239;51.680;5.976;2023-04-29T04:21:13;101486.13;;;9.11;100.00
66887;BME280;67239;51.680;5.976;2023-04-29T04:23:45;101495.78;;;9.11;100.00
66887;BME280;67239;51.680;5.976;2023-04-29T04:26:17;101494.06;;;9.10;100.00
66887;BME280;67239;51.680;5.976;2023-04-29T04:28:56;101487.88;;;9.11;100.00
66887;BME280;67239;51.680;5.976;2023-04-29T04:31:32;101498.41;;;9.12;100.00
66887;BME280;67239;51.680;5.976;2023-04-29T04:34:00;101502.78;;;9.12;100.00
66887;BME280;67239;51.680;5.976;2023-04-29T04:36:29;101504.53;;;9.13;100.00
66887;BME280;67239;51.680;5.976;2023-04-29T04:38:58;101515.03;;;9.14;100.00
66887;BME280;67239;51.680;5.976;2023-04-29T04:41:25;101508.03;;;9.13;100.00
66887;BME280;67239;51.680;5.976;2023-04-29T04:43:52;101513.28;;;9.13;100.00
66887;BME280;67239;51.680;5.976;2023-04-29T04:46:43;101515.91;;;9.15;100.00
66887;BME280;67239;51.680;5.976;2023-04-29T04:49:33;101518.53;;;9.15;100.00
66887;BME280;67239;51.680;5.976;2023-04-29T04:52:00;101517.66;;;9.14;100.00
66887;BME280;67239;51.680;5.976;2023-04-29T04:54:27;101520.31;;;9.14;100.00
66887;BME280;67239;51.680;5.976;2023-04-29T04:57:04;101520.28;;;9.16;100.00
66887;BME280;67239;51.680;5.976;2023-04-29T04:59:32;101530.75;;;9.17;100.00
66887;BME280;67239;51.680;5.976;2023-04-29T05:02:00;101527.28;;;9.17;100.00
66887;BME280;67239;51.680;5.976;2023-04-29T05:04:28;101537.84;;;9.15;100.00
66887;BME280;67239;51.680;5.976;2023-04-29T05:06:55;101539.53;;;9.16;100.00
66887;BME280;67239;51.680;5.976;2023-04-29T05:09:25;101544.81;;;9.16;100.00
66887;BME280;67239;51.680;5.976;2023-04-29T05:11:53;101546.56;;;9.16;100.00
66887;BME280;67239;51.680;5.976;2023-04-29T05:14:20;101548.31;;;9.17;100.00
66887;BME280;67239;51.680;5.976;2023-04-29T05:16:47;101560.59;;;9.18;100.00
66887;BME280;67239;51.680;5.976;2023-04-29T05:19:14;101560.59;;;9.18;100.00
66887;BME280;67239;51.680;5.976;2023-04-29T05:21:41;101564.97;;;9.17;100.00
66887;BME280;67239;51.680;5.976;2023-04-29T05:24:10;101576.28;;;9.24;100.00
66887;BME280;67239;51.680;5.976;2023-04-29T05:26:37;101568.38;;;9.26;100.00
66887;BME280;67239;51.680;5.976;2023-04-29T05:29:05;101573.66;;;9.26;100.00
66887;BME280;67239;51.680;5.976;2023-04-29T05:31:42;101569.25;;;9.26;100.00
66887;BME280;67239;51.680;5.976;2023-04-29T05:34:09;101574.50;;;9.26;100.00
66887;BME280;67239;51.680;5.976;2023-04-29T05:36:36;101579.78;;;9.26;99.93
66887;BME280;67239;51.680;5.976;2023-04-29T05:39:04;101581.53;;;9.26;99.70
66887;BME280;67239;51.680;5.976;2023-04-29T05:41:31;101591.16;;;9.27;99.35
66887;BME280;67239;51.680;5.976;2023-04-29T05:44:18;101589.41;;;9.27;99.52
66887;BME280;67239;51.680;5.976;2023-04-29T05:46:45;101586.75;;;9.29;99.44
66887;BME280;67239;51.680;5.976;2023-04-29T05:49:14;101603.34;;;9.32;99.72
66887;BME280;67239;51.680;5.976;2023-04-29T05:51:42;101587.59;;;9.31;99.86
66887;BME280;67239;51.680;5.976;2023-04-29T05:54:09;101595.41;;;9.37;99.19
66887;BME280;67239;51.680;5.976;2023-04-29T05:56:36;101600.66;;;9.39;98.55
66887;BME280;67239;51.680;5.976;2023-04-29T05:59:03;101604.09;;;9.44;97.76
66887;BME280;67239;51.680;5.976;2023-04-29T06:01:31;101608.47;;;9.45;97.31
66887;BME280;67239;51.680;5.976;2023-04-29T06:03:59;101608.44;;;9.46;96.47
66887;BME280;67239;51.680;5.976;2023-04-29T06:06:34;101618.97;;;9.46;96.49
66887;BME280;67239;51.680;5.976;2023-04-29T06:09:19;101616.34;;;9.46;96.63
66887;BME280;67239;51.680;5.976;2023-04-29T06:12:00;101616.31;;;9.50;96.43
66887;BME280;67239;51.680;5.976;2023-04-29T06:14:27;101621.50;;;9.54;96.18
66887;BME280;67239;51.680;5.976;2023-04-29T06:16:54;101627.56;;;9.61;96.34
66887;BME280;67239;51.680;5.976;2023-04-29T06:19:23;101629.25;;;9.67;95.40
66887;BME280;67239;51.680;5.976;2023-04-29T06:21:51;101638.84;;;9.71;95.69
66887;BME280;67239;51.680;5.976;2023-04-29T06:24:18;101637.88;;;9.78;95.18
66887;BME280;67239;51.680;5.976;2023-04-29T06:26:45;101643.06;;;9.83;94.81
66887;BME280;67239;51.680;5.976;2023-04-29T06:29:12;101645.63;;;9.87;94.10
66887;BME280;67239;51.680;5.976;2023-04-29T06:31:40;101648.16;;;9.93;93.74
66887;BME280;67239;51.680;5.976;2023-04-29T06:34:07;101648.09;;;10.00;93.25
66887;BME280;67239;51.680;5.976;2023-04-29T06:36:43;101647.13;;;10.04;93.51
66887;BME280;67239;51.680;5.976;2023-04-29T06:39:28;101649.63;;;10.13;93.22
66887;BME280;67239;51.680;5.976;2023-04-29T06:42:13;101654.69;;;10.25;92.37
66887;BME280;67239;51.680;5.976;2023-04-29T06:45:04;101658.94;;;10.39;91.26
66887;BME280;67239;51.680;5.976;2023-04-29T06:47:50;101666.63;;;10.51;91.34
66887;BME280;67239;51.680;5.976;2023-04-29T06:50:28;101671.63;;;10.67;90.85
66887;BME280;67239;51.680;5.976;2023-04-29T06:52:55;101672.22;;;10.83;90.01
66887;BME280;67239;51.680;5.976;2023-04-29T06:55:22;101686.06;;;10.97;90.58
66887;BME280;67239;51.680;5.976;2023-04-29T06:57:49;101680.47;;;11.13;89.43
66887;BME280;67239;51.680;5.976;2023-04-29T07:00:16;101682.06;;;11.22;89.17
66887;BME280;67239;51.680;5.976;2023-04-29T07:02:45;101683.69;;;11.29;87.88
66887;BME280;67239;51.680;5.976;2023-04-29T07:05:12;101684.53;;;11.29;88.54
66887;BME280;67239;51.680;5.976;2023-04-29T07:07:42;101688.06;;;11.30;86.93
66887;BME280;67239;51.680;5.976;2023-04-29T07:10:09;101700.47;;;11.25;86.33
66887;BME280;67239;51.680;5.976;2023-04-29T07:12:36;101690.88;;;11.21;86.98
66887;BME280;67239;51.680;5.976;2023-04-29T07:15:03;101706.69;;;11.22;87.50
66887;BME280;67239;51.680;5.976;2023-04-29T07:17:30;101704.03;;;11.24;86.47
66887;BME280;67239;51.680;5.976;2023-04-29T07:19:58;101707.66;;;11.16;84.88
66887;BME280;67239;51.680;5.976;2023-04-29T07:22:25;101716.56;;;11.11;86.50
66887;BME280;67239;51.680;5.976;2023-04-29T07:24:55;101715.75;;;11.09;86.99
66887;BME280;67239;51.680;5.976;2023-04-29T07:27:24;101718.34;;;11.10;87.00
66887;BME280;67239;51.680;5.976;2023-04-29T07:29:51;101718.34;;;11.10;87.04
66887;BME280;67239;51.680;5.976;2023-04-29T07:32:18;101725.34;;;11.13;87.19
66887;BME280;67239;51.680;5.976;2023-04-29T07:34:45;101724.38;;;11.17;87.41
66887;BME280;67239;51.680;5.976;2023-04-29T07:37:14;101721.59;;;11.25;87.91
66887;BME280;67239;51.680;5.976;2023-04-29T07:39:41;101722.34;;;11.33;85.79
66887;BME280;67239;51.680;5.976;2023-04-29T07:42:09;101733.69;;;11.35;85.04
66887;BME280;67239;51.680;5.976;2023-04-29T07:44:36;101738.97;;;11.35;83.65
66887;BME280;67239;51.680;5.976;2023-04-29T07:47:03;101737.28;;;11.34;83.48
66887;BME280;67239;51.680;5.976;2023-04-29T07:49:30;101745.19;;;11.32;84.37
66887;BME280;67239;51.680;5.976;2023-04-29T07:51:57;101752.19;;;11.37;84.01
66887;BME280;67239;51.680;5.976;2023-04-29T07:54:24;101753.03;;;11.37;84.22
66887;BME280;67239;51.680;5.976;2023-04-29T07:56:52;101752.13;;;11.38;84.92
66887;BME280;67239;51.680;5.976;2023-04-29T07:59:19;101754.63;;;11.46;85.06
66887;BME280;67239;51.680;5.976;2023-04-29T08:01:46;101761.53;;;11.53;85.89
66887;BME280;67239;51.680;5.976;2023-04-29T08:04:13;101758.59;;;11.67;83.78
66887;BME280;67239;51.680;5.976;2023-04-29T08:06:53;101759.25;;;11.78;83.04
66887;BME280;67239;51.680;5.976;2023-04-29T08:09:20;101761.84;;;11.81;82.36
66887;BME280;67239;51.680;5.976;2023-04-29T08:11:47;101766.03;;;11.92;81.97
66887;BME280;67239;51.680;5.976;2023-04-29T08:14:14;101770.22;;;12.04;81.56
66887;BME280;67239;51.680;5.976;2023-04-29T08:16:41;101766.50;;;12.13;82.08
66887;BME280;67239;51.680;5.976;2023-04-29T08:19:09;101763.50;;;12.30;81.94
66887;BME280;67239;51.680;5.976;2023-04-29T08:21:36;101769.22;;;12.49;82.16
66887;BME280;67239;51.680;5.976;2023-04-29T08:24:03;101764.31;;;12.69;80.24
66887;BME280;67239;51.680;5.976;2023-04-29T08:26:31;101761.25;;;12.86;79.70
66887;BME280;67239;51.680;5.976;2023-04-29T08:28:58;101767.81;;;13.06;76.71
66887;BME280;67239;51.680;5.976;2023-04-29T08:31:26;101768.72;;;13.05;75.84
66887;BME280;67239;51.680;5.976;2023-04-29T08:33:53;101764.38;;;13.02;75.77
66887;BME280;67239;51.680;5.976;2023-04-29T08:36:20;101777.38;;;13.12;76.13
66887;BME280;67239;51.680;5.976;2023-04-29T08:38:47;101777.06;;;13.24;75.16
66887;BME280;67239;51.680;5.976;2023-04-29T08:41:14;101775.81;;;13.39;75.00
66887;BME280;67239;51.680;5.976;2023-04-29T08:43:42;101773.63;;;13.54;76.05
66887;BME280;67239;51.680;5.976;2023-04-29T08:46:09;101775.66;;;13.75;75.59
66887;BME280;67239;51.680;5.976;2023-04-29T08:48:37;101783.88;;;13.97;72.17
66887;BME280;67239;51.680;5.976;2023-04-29T08:51:11;101780.41;;;13.95;73.44
66887;BME280;67239;51.680;5.976;2023-04-29T08:53:39;101781.88;;;14.06;73.64
66887;BME280;67239;51.680;5.976;2023-04-29T08:56:16;101785.97;;;14.16;71.77
66887;BME280;67239;51.680;5.976;2023-04-29T08:58:51;101791.00;;;14.25;73.01
66887;BME280;67239;51.680;5.976;2023-04-29T09:01:26;101788.84;;;14.38;71.11
66887;BME280;67239;51.680;5.976;2023-04-29T09:07:04;101797.03;;;14.59;69.55
66887;BME280;67239;51.680;5.976;2023-04-29T09:09:33;101795.84;;;14.69;67.65
66887;BME280;67239;51.680;5.976;2023-04-29T09:12:00;101801.38;;;14.62;66.76
66887;BME280;67239;51.680;5.976;2023-04-29T09:14:29;101798.63;;;14.65;67.37
66887;BME280;67239;51.680;5.976;2023-04-29T09:17:01;101796.75;;;14.68;67.04
66887;BME280;67239;51.680;5.976;2023-04-29T09:19:33;101807.34;;;14.70;66.92
66887;BME280;67239;51.680;5.976;2023-04-29T09:22:02;101810.25;;;14.60;67.70
66887;BME280;67239;51.680;5.976;2023-04-29T09:24:30;101810.31;;;14.59;66.30
66887;BME280;67239;51.680;5.976;2023-04-29T09:26:58;101817.56;;;14.52;66.48
66887;BME280;67239;51.680;5.976;2023-04-29T09:29:26;101816.81;;;14.49;65.64
66887;BME280;67239;51.680;5.976;2023-04-29T09:31:53;101818.56;;;14.50;66.40
66887;BME280;67239;51.680;5.976;2023-04-29T09:34:34;101817.34;;;14.60;66.50
66887;BME280;67239;51.680;5.976;2023-04-29T09:37:02;101815.31;;;14.70;65.78
66887;BME280;67239;51.680;5.976;2023-04-29T09:39:37;101812.22;;;14.84;66.06
66887;BME280;67239;51.680;5.976;2023-04-29T09:42:05;101809.84;;;15.01;63.14
66887;BME280;67239;51.680;5.976;2023-04-29T09:44:34;101811.44;;;15.07;64.67
66887;BME280;67239;51.680;5.976;2023-04-29T09:52:05;101810.38;;;15.38;61.81
66887;BME280;67239;51.680;5.976;2023-04-29T09:54:35;101815.09;;;15.55;61.93
66887;BME280;67239;51.680;5.976;2023-04-29T09:57:05;101807.66;;;15.65;59.81
66887;BME280;67239;51.680;5.976;2023-04-29T09:59:36;101813.69;;;15.45;58.83
66887;BME280;67239;51.680;5.976;2023-04-29T10:02:15;101823.09;;;15.28;60.61
66887;BME280;67239;51.680;5.976;2023-04-29T10:04:47;101815.94;;;15.30;59.78
66887;BME280;67239;51.680;5.976;2023-04-29T10:07:20;101812.88;;;15.43;62.04
66887;BME280;67239;51.680;5.976;2023-04-29T10:09:48;101822.44;;;15.72;62.98
66887;BME280;67239;51.680;5.976;2023-04-29T10:12:17;101830.09;;;15.81;60.76
66887;BME280;67239;51.680;5.976;2023-04-29T10:15:03;101836.56;;;15.74;59.76
66887;BME280;67239;51.680;5.976;2023-04-29T10:17:53;101837.59;;;15.70;61.17
66887;BME280;67239;51.680;5.976;2023-04-29T10:20:36;101838.19;;;15.78;60.88
66887;BME280;67239;51.680;5.976;2023-04-29T10:23:10;101838.88;;;15.85;60.52
66887;BME280;67239;51.680;5.976;2023-04-29T10:25:39;101837.25;;;15.79;60.89
66887;BME280;67239;51.680;5.976;2023-04-29T10:28:12;101828.47;;;16.03;60.54
66887;BME280;67239;51.680;5.976;2023-04-29T10:30:43;101834.34;;;16.11;59.66
66887;BME280;67239;51.680;5.976;2023-04-29T10:33:14;101830.94;;;16.07;60.71
66887;BME280;67239;51.680;5.976;2023-04-29T10:35:42;101836.16;;;16.10;59.49
66887;BME280;67239;51.680;5.976;2023-04-29T10:38:16;101841.53;;;16.09;59.59
66887;BME280;67239;51.680;5.976;2023-04-29T10:40:55;101837.91;;;16.11;59.14
66887;BME280;67239;51.680;5.976;2023-04-29T10:43:28;101844.66;;;16.20;58.87
66887;BME280;67239;51.680;5.976;2023-04-29T10:48:43;101841.06;;;16.21;58.36
66887;BME280;67239;51.680;5.976;2023-04-29T10:51:10;101845.47;;;16.22;58.00
66887;BME280;67239;51.680;5.976;2023-04-29T10:53:59;101847.66;;;16.35;58.39
66887;BME280;67239;51.680;5.976;2023-04-29T10:56:47;101846.44;;;16.66;55.71
66887;BME280;67239;51.680;5.976;2023-04-29T10:59:20;101844.06;;;16.80;57.05
66887;BME280;67239;51.680;5.976;2023-04-29T11:01:50;101843.53;;;16.72;57.27
66887;BME280;67239;51.680;5.976;2023-04-29T11:04:20;101836.00;;;16.61;56.56
66887;BME280;67239;51.680;5.976;2023-04-29T11:06:54;101838.97;;;16.29;57.46
66887;BME280;67239;51.680;5.976;2023-04-29T11:09:30;101845.34;;;16.02;56.21
66887;BME280;67239;51.680;5.976;2023-04-29T11:12:07;101850.25;;;15.63;56.57
66887;BME280;67239;51.680;5.976;2023-04-29T11:17:12;101847.09;;;16.03;55.97
66887;BME280;67239;51.680;5.976;2023-04-29T11:19:43;101858.88;;;16.43;55.08
66887;BME280;67239;51.680;5.976;2023-04-29T11:27:31;101851.81;;;16.18;55.95
66887;BME280;67239;51.680;5.976;2023-04-29T11:30:01;101846.25;;;16.01;57.74
66887;BME280;67239;51.680;5.976;2023-04-29T11:32:33;101849.44;;;15.87;58.64
66887;BME280;67239;51.680;5.976;2023-04-29T11:35:11;101846.09;;;15.80;58.72
66887;BME280;67239;51.680;5.976;2023-04-29T11:37:43;101850.81;;;15.72;56.03
66887;BME280;67239;51.680;5.976;2023-04-29T11:40:12;101852.41;;;15.52;55.81
66887;BME280;67239;51.680;5.976;2023-04-29T11:42:47;101853.81;;;15.37;56.53
66887;BME280;67239;51.680;5.976;2023-04-29T11:45:18;101853.09;;;15.32;56.90
66887;BME280;67239;51.680;5.976;2023-04-29T11:47:46;101849.63;;;15.30;57.76
66887;BME280;67239;51.680;5.976;2023-04-29T11:50:16;101852.78;;;15.41;57.83
66887;BME280;67239;51.680;5.976;2023-04-29T11:52:47;101853.75;;;15.64;57.20
66887;BME280;67239;51.680;5.976;2023-04-29T11:55:17;101857.47;;;15.83;55.93
66887;BME280;67239;51.680;5.976;2023-04-29T11:57:48;101867.03;;;15.91;56.93
66887;BME280;67239;51.680;5.976;2023-04-29T12:00:17;101854.25;;;16.01;56.03
66887;BME280;67239;51.680;5.976;2023-04-29T12:02:45;101861.03;;;16.09;57.69
66887;BME280;67239;51.680;5.976;2023-04-29T12:05:13;101854.81;;;16.33;55.98
66887;BME280;67239;51.680;5.976;2023-04-29T12:07:42;101854.25;;;16.70;56.05
66887;BME280;67239;51.680;5.976;2023-04-29T12:10:10;101851.03;;;17.06;56.32
66887;BME280;67239;51.680;5.976;2023-04-29T12:12:38;101852.25;;;17.20;54.60
66887;BME280;67239;51.680;5.976;2023-04-29T12:15:13;101857.72;;;17.17;52.82
66887;BME280;67239;51.680;5.976;2023-04-29T12:17:41;101861.22;;;16.97;52.73
66887;BME280;67239;51.680;5.976;2023-04-29T12:20:10;101864.78;;;16.73;52.40
66887;BME280;67239;51.680;5.976;2023-04-29T12:22:38;101861.09;;;16.54;53.57
66887;BME280;67239;51.680;5.976;2023-04-29T12:25:05;101860.97;;;16.35;54.74
66887;BME280;67239;51.680;5.976;2023-04-29T12:27:35;101864.78;;;16.27;54.21
66887;BME280;67239;51.680;5.976;2023-04-29T12:30:06;101862.63;;;16.13;53.46
66887;BME280;67239;51.680;5.976;2023-04-29T12:32:35;101867.38;;;16.05;54.60
66887;BME280;67239;51.680;5.976;2023-04-29T12:35:04;101871.56;;;16.12;54.63
66887;BME280;67239;51.680;5.976;2023-04-29T12:37:32;101863.16;;;16.23;55.40
66887;BME280;67239;51.680;5.976;2023-04-29T12:39:59;101862.44;;;16.42;54.39
66887;BME280;67239;51.680;5.976;2023-04-29T12:42:31;101863.56;;;16.58;54.88
66887;BME280;67239;51.680;5.976;2023-04-29T12:44:59;101860.06;;;16.80;54.02
66887;BME280;67239;51.680;5.976;2023-04-29T12:47:31;101857.44;;;17.02;53.75
66887;BME280;67239;51.680;5.976;2023-04-29T12:50:00;101860.13;;;17.23;54.39
66887;BME280;67239;51.680;5.976;2023-04-29T12:52:27;101863.94;;;17.38;53.79
66887;BME280;67239;51.680;5.976;2023-04-29T12:54:55;101855.28;;;17.53;54.00
66887;BME280;67239;51.680;5.976;2023-04-29T12:57:23;101860.16;;;17.64;51.28
66887;BME280;67239;51.680;5.976;2023-04-29T12:59:52;101857.59;;;17.61;50.16
66887;BME280;67239;51.680;5.976;2023-04-29T13:02:19;101863.78;;;17.41;49.67
66887;BME280;67239;51.680;5.976;2023-04-29T13:04:46;101865.47;;;17.23;50.59
66887;BME280;67239;51.680;5.976;2023-04-29T13:07:14;101871.03;;;17.17;50.83
66887;BME280;67239;51.680;5.976;2023-04-29T13:09:41;101873.97;;;17.11;50.99
66887;BME280;67239;51.680;5.976;2023-04-29T13:12:08;101877.56;;;17.10;51.16
66887;BME280;67239;51.680;5.976;2023-04-29T13:14:35;101880.53;;;17.02;52.03
66887;BME280;67239;51.680;5.976;2023-04-29T13:17:02;101878.75;;;17.02;51.90
66887;BME280;67239;51.680;5.976;2023-04-29T13:19:29;101881.44;;;17.01;50.56
66887;BME280;67239;51.680;5.976;2023-04-29T13:22:17;101882.88;;;17.10;51.71
66887;BME280;67239;51.680;5.976;2023-04-29T13:24:44;101877.97;;;17.21;52.27
66887;BME280;67239;51.680;5.976;2023-04-29T13:27:12;101882.59;;;17.38;50.95
66887;BME280;67239;51.680;5.976;2023-04-29T13:29:39;101881.19;;;17.50;51.05